Time;durP1;ratioP1;P1;durP2;ratioP2;P2;SDS_P1;SDS_P2;PMS_P1;PMS_P2;Temp;Humidity;BMP_temperature;BMP_pressure;BME280_temperature;BME280_humidity;BME280_pressure;Samples;Min_cycle;Max_cycle;Signal;HPM_P1;HPM_P2
2021/12/22 00:00:14;;;;;;;43.63;24.63;;;-1.60;99.90;;;;;;5000739;28;20072;-84
2021/12/22 00:02:46;;;;;;;47.47;25.85;;;-1.60;99.90;;;;;;5000157;28;20038;-83
2021/12/22 00:05:14;;;;;;;48.30;25.02;;;-1.60;99.90;;;;;;5004223;28;20121;-83
2021/12/22 00:07:40;;;;;;;40.78;24.27;;;-1.70;99.90;;;;;;5014911;28;20034;-83
2021/12/22 00:10:05;;;;;;;41.70;23.08;;;-1.50;99.90;;;;;;4999436;28;20118;-84
2021/12/22 00:12:31;;;;;;;38.67;23.02;;;-1.60;99.90;;;;;;5003832;28;20072;-84
2021/12/22 00:14:57;;;;;;;45.90;25.08;;;-1.80;99.90;;;;;;5003311;28;20056;-83
2021/12/22 00:17:22;;;;;;;45.45;25.10;;;-1.70;99.90;;;;;;5003997;28;20029;-83
2021/12/22 00:19:48;;;;;;;47.75;24.95;;;-1.70;99.90;;;;;;4999027;28;20056;-83
2021/12/22 00:22:14;;;;;;;49.75;26.58;;;-1.80;99.90;;;;;;5013379;28;20037;-83
2021/12/22 00:24:40;;;;;;;51.08;28.02;;;-1.80;99.90;;;;;;5013358;28;20044;-84
2021/12/22 00:27:06;;;;;;;52.22;26.25;;;-1.80;99.90;;;;;;5014232;28;20091;-83
2021/12/22 00:29:32;;;;;;;46.85;25.83;;;-1.70;99.90;;;;;;5001225;28;20045;-84
2021/12/22 00:32:10;;;;;;;47.95;24.92;;;-1.70;99.90;;;;;;4997402;28;20049;-83
2021/12/22 00:34:45;;;;;;;48.60;26.13;;;-1.90;99.90;;;;;;4997354;28;20427;-83
2021/12/22 00:37:11;;;;;;;49.38;25.90;;;-1.90;99.90;;;;;;5002156;28;20493;-83
2021/12/22 00:39:36;;;;;;;41.90;24.98;;;-1.80;99.90;;;;;;5030396;28;20134;-83
2021/12/22 00:42:02;;;;;;;44.72;23.67;;;-2.00;99.90;;;;;;5000145;28;20538;-83
2021/12/22 00:44:27;;;;;;;38.38;22.83;;;-2.00;99.90;;;;;;5001004;28;20037;-83
2021/12/22 00:46:53;;;;;;;44.03;23.20;;;-2.10;99.90;;;;;;5001852;28;20038;-83
2021/12/22 00:49:19;;;;;;;44.70;22.77;;;-1.90;99.90;;;;;;5001828;28;20041;-83
2021/12/22 00:51:44;;;;;;;40.53;23.38;;;-1.90;99.90;;;;;;5015772;28;20218;-83
2021/12/22 00:54:10;;;;;;;39.30;23.77;;;-2.10;99.90;;;;;;5000247;28;20103;-83
2021/12/22 00:56:37;;;;;;;43.10;23.95;;;-2.20;99.90;;;;;;5000102;28;20054;-84
2021/12/22 00:59:05;;;;;;;39.88;23.33;;;-2.20;99.90;;;;;;5002005;28;20053;-83
2021/12/22 01:01:30;;;;;;;42.38;25.13;;;-2.10;99.90;;;;;;5012654;28;20064;-83
2021/12/22 01:03:56;;;;;;;41.25;24.30;;;-2.20;99.90;;;;;;5000938;28;20041;-83
2021/12/22 01:06:23;;;;;;;41.15;24.65;;;-2.10;99.90;;;;;;4994121;28;20049;-83
2021/12/22 01:08:48;;;;;;;40.90;23.30;;;-2.10;99.90;;;;;;4999922;28;20045;-83
2021/12/22 01:11:14;;;;;;;39.75;22.70;;;-2.20;99.90;;;;;;5014826;28;20289;-84
2021/12/22 01:13:40;;;;;;;37.90;22.65;;;-2.20;99.90;;;;;;4998469;28;20033;-83
2021/12/22 01:16:06;;;;;;;38.58;22.50;;;-2.30;99.90;;;;;;5001034;28;20038;-82
2021/12/22 01:18:34;;;;;;;38.78;21.13;;;-2.20;99.90;;;;;;4997580;28;20103;-84
2021/12/22 01:21:12;;;;;;;33.90;20.35;;;-2.40;99.90;;;;;;4995955;28;20038;-83
2021/12/22 01:23:51;;;;;;;35.28;20.42;;;-2.20;99.90;;;;;;5013800;28;20350;-84
2021/12/22 01:26:17;;;;;;;34.15;20.05;;;-2.30;99.90;;;;;;5016419;28;20465;-84
2021/12/22 01:28:43;;;;;;;33.63;21.13;;;-2.40;99.90;;;;;;5000651;28;20124;-83
2021/12/22 01:31:15;;;;;;;32.47;20.65;;;-2.40;99.90;;;;;;4998711;28;20260;-83
2021/12/22 01:33:40;;;;;;;36.70;21.08;;;-2.40;99.90;;;;;;5012507;28;20367;-84
2021/12/22 01:36:06;;;;;;;46.30;21.70;;;-2.50;99.90;;;;;;4998831;28;20045;-83
2021/12/22 01:38:32;;;;;;;35.55;20.88;;;-2.40;99.90;;;;;;5000494;28;20481;-83
2021/12/22 01:40:58;;;;;;;35.63;20.85;;;-2.50;99.90;;;;;;5015060;28;20324;-84
2021/12/22 01:43:23;;;;;;;39.22;22.08;;;-2.50;99.90;;;;;;4996838;28;20114;-83
2021/12/22 01:49:11;;;;;;;34.08;20.10;;;-2.50;99.90;;;;;;5024074;28;20080;-83
2021/12/22 01:52:00;;;;;;;30.75;19.48;;;-2.60;99.90;;;;;;4997586;28;20140;-83
2021/12/22 01:54:33;;;;;;;35.45;20.52;;;-2.50;99.90;;;;;;5001559;28;20060;-84
2021/12/22 01:57:08;;;;;;;33.03;21.00;;;-2.50;99.90;;;;;;4997387;28;20065;-83
2021/12/22 01:59:34;;;;;;;35.15;20.42;;;-2.60;99.90;;;;;;5014127;28;20057;-83
2021/12/22 02:02:00;;;;;;;33.35;20.25;;;-2.60;99.90;;;;;;5032832;28;20038;-83
2021/12/22 02:04:26;;;;;;;37.88;21.42;;;-2.60;99.90;;;;;;5017248;28;20093;-83
2021/12/22 02:06:52;;;;;;;36.63;20.33;;;-2.70;99.90;;;;;;5019309;28;20182;-83
2021/12/22 02:10:05;;;;;;;36.13;20.13;;;-2.70;99.90;;;;;;5002879;28;20033;-83
2021/12/22 02:12:10;;;;;;;35.17;20.15;;;-2.70;99.90;;;;;;5029276;28;20077;-83
2021/12/22 02:14:36;;;;;;;36.35;20.10;;;-2.80;99.90;;;;;;5019132;28;20065;-83
2021/12/22 02:17:08;;;;;;;34.20;21.20;;;-2.80;99.90;;;;;;5002310;28;20138;-83
2021/12/22 02:19:45;;;;;;;32.83;19.90;;;-2.80;99.90;;;;;;5001890;28;20164;-83
2021/12/22 02:22:14;;;;;;;31.75;19.38;;;-2.70;99.90;;;;;;5018677;28;20071;-83
2021/12/22 02:24:55;;;;;;;35.45;19.45;;;-2.90;99.90;;;;;;5016979;28;20037;-83
2021/12/22 02:27:47;;;;;;;33.83;19.20;;;-2.90;99.90;;;;;;5003825;28;20636;-84
2021/12/22 02:30:17;;;;;;;34.80;19.92;;;-2.80;99.90;;;;;;5015964;28;20348;-83
2021/12/22 02:35:38;;;;;;;37.40;19.83;;;-3.00;99.90;;;;;;5016627;28;20050;-83
2021/12/22 02:38:07;;;;;;;40.05;21.08;;;-2.80;99.90;;;;;;5021284;28;20055;-83
2021/12/22 02:40:33;;;;;;;36.67;22.20;;;-2.80;99.90;;;;;;4999816;28;20041;-83
2021/12/22 02:43:05;;;;;;;33.75;21.00;;;-2.80;99.90;;;;;;4999608;28;20026;-83
2021/12/22 02:45:33;;;;;;;38.05;21.05;;;-2.80;99.90;;;;;;5008755;28;20070;-83
2021/12/22 02:47:59;;;;;;;39.35;21.40;;;-2.70;99.90;;;;;;5003021;28;20268;-83
2021/12/22 02:50:25;;;;;;;38.25;21.77;;;-2.80;99.90;;;;;;5017988;28;20033;-83
2021/12/22 02:53:04;;;;;;;35.00;20.67;;;-2.80;99.90;;;;;;5001867;28;20060;-83
2021/12/22 02:55:42;;;;;;;44.38;21.13;;;-2.80;99.90;;;;;;5017193;28;20056;-83
2021/12/22 02:58:11;;;;;;;40.22;20.48;;;-2.80;99.90;;;;;;5020764;28;20132;-83
2021/12/22 03:03:11;;;;;;;32.13;19.80;;;-2.80;99.90;;;;;;5033761;28;20133;-84
2021/12/22 03:05:38;;;;;;;;;;;-2.90;99.90;;;;;;5019407;28;20088;-83
2021/12/22 03:08:05;;;;;;;32.10;18.17;;;-2.90;99.90;;;;;;5000757;28;19925;-83
2021/12/22 03:10:31;;;;;;;33.80;19.33;;;-3.10;99.90;;;;;;5017647;28;20033;-83
2021/12/22 03:13:02;;;;;;;32.67;19.30;;;-3.00;99.90;;;;;;5015150;28;20507;-83
2021/12/22 03:15:28;;;;;;;31.77;18.75;;;-3.10;99.90;;;;;;5002669;28;20041;-83
2021/12/22 03:17:57;;;;;;;35.38;18.98;;;-3.10;99.90;;;;;;5033252;28;20040;-84
2021/12/22 03:20:24;;;;;;;35.72;17.70;;;-3.10;99.90;;;;;;5015831;28;20047;-83
2021/12/22 03:22:50;;;;;;;33.17;19.50;;;-3.20;99.90;;;;;;5000814;28;20336;-83
2021/12/22 03:25:17;;;;;;;34.38;19.25;;;-3.20;99.90;;;;;;5016687;28;20571;-83
2021/12/22 03:27:49;;;;;;;34.15;19.40;;;-3.10;99.90;;;;;;5003563;28;20033;-83
2021/12/22 03:30:17;;;;;;;29.38;19.10;;;-3.20;99.90;;;;;;5020080;28;20489;-84
2021/12/22 03:32:43;;;;;;;35.33;18.92;;;-3.20;99.90;;;;;;5016304;28;20037;-83
2021/12/22 03:35:15;;;;;;;35.63;19.05;;;-3.20;99.90;;;;;;5012057;28;20527;-83
2021/12/22 03:37:41;;;;;;;32.88;18.33;;;-3.20;99.90;;;;;;5031890;28;20033;-83
2021/12/22 03:40:07;;;;;;;29.90;16.67;;;-3.10;99.90;;;;;;5002515;28;20116;-83
2021/12/22 03:42:33;;;;;;;28.80;16.92;;;-3.10;99.90;;;;;;5004644;28;20618;-83
2021/12/22 03:44:58;;;;;;;32.60;18.25;;;-3.30;99.90;;;;;;5003876;28;20044;-83
2021/12/22 03:47:26;;;;;;;29.25;17.55;;;-3.20;99.90;;;;;;5017991;28;20087;-83
2021/12/22 03:49:54;;;;;;;30.88;17.95;;;-3.20;99.90;;;;;;5004193;28;20045;-83
2021/12/22 03:52:20;;;;;;;33.10;17.58;;;-3.30;99.90;;;;;;5014191;28;20038;-83
2021/12/22 03:54:46;;;;;;;31.23;17.15;;;-3.10;99.90;;;;;;5003088;28;20113;-82
2021/12/22 03:57:11;;;;;;;30.67;17.63;;;-3.20;99.90;;;;;;5017445;28;20452;-83
2021/12/22 03:59:37;;;;;;;30.92;18.23;;;-3.20;99.90;;;;;;5004695;28;20041;-83
2021/12/22 04:02:03;;;;;;;30.58;18.00;;;-3.30;99.90;;;;;;5031713;28;20480;-83
2021/12/22 04:04:29;;;;;;;30.95;16.88;;;-3.30;99.90;;;;;;5033641;28;20515;-83
2021/12/22 04:06:55;;;;;;;31.00;17.92;;;-3.20;99.90;;;;;;4995831;28;20052;-83
2021/12/22 04:09:26;;;;;;;30.08;16.85;;;-3.20;99.90;;;;;;4999133;28;20045;-83
2021/12/22 04:11:53;;;;;;;31.58;17.23;;;-3.30;99.90;;;;;;5003906;28;20130;-83
2021/12/22 04:14:19;;;;;;;31.88;17.10;;;-3.40;99.90;;;;;;5003365;28;20050;-83
2021/12/22 04:16:45;;;;;;;31.17;17.02;;;-3.40;99.90;;;;;;5002498;28;20086;-83
2021/12/22 04:19:11;;;;;;;30.00;16.88;;;-3.40;99.90;;;;;;5012525;28;20172;-83
2021/12/22 04:21:36;;;;;;;27.25;16.25;;;-3.30;99.90;;;;;;4996799;28;20342;-83
2021/12/22 04:24:02;;;;;;;29.33;16.42;;;-3.30;99.90;;;;;;5003717;28;20731;-83
2021/12/22 04:26:31;;;;;;;28.13;17.05;;;-3.20;99.90;;;;;;5003073;28;20034;-83
2021/12/22 04:28:57;;;;;;;28.13;16.45;;;-3.40;99.90;;;;;;5034861;28;20143;-83
2021/12/22 04:31:23;;;;;;;28.55;16.60;;;-3.30;99.90;;;;;;5034451;28;20129;-83
2021/12/22 04:33:49;;;;;;;29.02;16.45;;;-3.40;99.90;;;;;;5001836;28;20046;-84
2021/12/22 04:36:18;;;;;;;34.45;17.75;;;-3.40;99.90;;;;;;4996885;28;20049;-82
2021/12/22 04:38:44;;;;;;;31.75;17.70;;;-3.30;99.90;;;;;;4998518;28;20041;-83
2021/12/22 04:41:09;;;;;;;33.78;16.95;;;-3.40;99.90;;;;;;5014569;28;20091;-82
2021/12/22 04:43:35;;;;;;;27.23;16.50;;;-3.40;99.90;;;;;;5001143;28;20049;-82
2021/12/22 04:46:01;;;;;;;27.13;16.23;;;-3.30;99.90;;;;;;5036043;28;20229;-83
2021/12/22 04:48:26;;;;;;;31.80;17.27;;;-3.40;99.90;;;;;;5000994;28;20039;-83
2021/12/22 04:50:52;;;;;;;29.77;15.32;;;-3.40;99.90;;;;;;5001668;28;20037;-82
2021/12/22 04:53:24;;;;;;;30.13;16.73;;;-3.30;99.90;;;;;;5011429;28;20025;-82
2021/12/22 04:55:50;;;;;;;28.40;16.45;;;-3.30;99.90;;;;;;5014409;28;20037;-83
2021/12/22 04:58:16;;;;;;;29.20;16.38;;;-3.30;99.90;;;;;;5002238;28;20052;-83
2021/12/22 05:00:43;;;;;;;29.52;16.50;;;-3.40;99.90;;;;;;5003818;28;20040;-83
2021/12/22 05:03:09;;;;;;;34.42;15.68;;;-3.40;99.90;;;;;;5016937;28;20476;-83
2021/12/22 05:05:35;;;;;;;31.83;16.58;;;-3.30;99.90;;;;;;5014288;28;20033;-83
2021/12/22 05:08:01;;;;;;;29.75;17.20;;;-3.50;99.90;;;;;;5000047;28;20041;-83
2021/12/22 05:10:28;;;;;;;31.33;16.65;;;-3.50;99.90;;;;;;4998965;28;20037;-83
2021/12/22 05:12:54;;;;;;;30.17;16.65;;;-3.40;99.90;;;;;;5014674;28;20116;-82
2021/12/22 05:15:22;;;;;;;29.85;16.75;;;-3.40;99.90;;;;;;5002908;28;20069;-83
2021/12/22 05:20:23;;;;;;;29.83;16.53;;;-3.50;99.90;;;;;;5012916;28;20042;-83
2021/12/22 05:22:49;;;;;;;31.80;16.48;;;-3.40;99.90;;;;;;4997897;28;20091;-83
2021/12/22 05:25:15;;;;;;;30.70;17.52;;;-3.50;99.90;;;;;;5016109;28;20045;-83
2021/12/22 05:27:41;;;;;;;29.17;15.68;;;-3.50;99.90;;;;;;5001752;28;20116;-83
2021/12/22 05:30:09;;;;;;;31.30;16.25;;;-3.60;99.90;;;;;;5001574;28;20401;-83
2021/12/22 05:32:36;;;;;;;31.90;17.73;;;-3.50;99.90;;;;;;5014186;28;20177;-83
2021/12/22 05:35:05;;;;;;;32.20;17.55;;;-3.50;99.90;;;;;;5004317;28;20037;-83
2021/12/22 05:37:31;;;;;;;27.65;15.80;;;-3.60;99.90;;;;;;5014888;28;20033;-83
2021/12/22 05:39:57;;;;;;;26.80;15.43;;;-3.50;99.90;;;;;;4995734;28;20380;-83
2021/12/22 05:42:27;;;;;;;29.48;17.13;;;-3.50;99.90;;;;;;5012582;28;20110;-83
2021/12/22 05:44:53;;;;;;;29.50;16.33;;;-3.50;99.90;;;;;;5004815;28;20583;-82
2021/12/22 05:47:19;;;;;;;28.10;15.88;;;-3.60;99.90;;;;;;5015825;28;20052;-83
2021/12/22 05:49:45;;;;;;;28.70;15.43;;;-3.50;99.90;;;;;;5001120;28;20034;-83
2021/12/22 05:52:11;;;;;;;31.00;17.58;;;-3.50;99.90;;;;;;4996259;28;20053;-83
2021/12/22 05:54:37;;;;;;;31.23;16.35;;;-3.50;99.90;;;;;;5017293;28;20578;-83
2021/12/22 05:57:04;;;;;;;29.92;16.85;;;-3.50;99.90;;;;;;5032156;28;20157;-83
2021/12/22 05:59:30;;;;;;;31.27;16.23;;;-3.60;99.90;;;;;;5001950;28;20501;-83
2021/12/22 06:01:56;;;;;;;32.63;16.35;;;-3.50;99.90;;;;;;5001611;28;20033;-83
2021/12/22 06:04:22;;;;;;;27.65;15.63;;;-3.50;99.90;;;;;;5028865;28;20060;-83
2021/12/22 06:06:47;;;;;;;31.60;16.08;;;-3.60;99.90;;;;;;4995713;28;20199;-83
2021/12/22 06:09:13;;;;;;;29.05;16.05;;;-3.50;99.90;;;;;;4999307;28;20053;-83
2021/12/22 06:11:39;;;;;;;31.27;16.77;;;-3.50;99.90;;;;;;5028285;28;20061;-82
2021/12/22 06:14:04;;;;;;;29.15;16.02;;;-3.50;99.90;;;;;;5034455;28;20073;-83
2021/12/22 06:16:30;;;;;;;30.25;16.88;;;-3.60;99.90;;;;;;4999138;28;20053;-85
2021/12/22 06:19:01;;;;;;;31.60;15.35;;;-3.50;99.90;;;;;;5001807;28;20038;-83
2021/12/22 06:21:27;;;;;;;33.80;16.55;;;-3.50;99.90;;;;;;4995966;28;20045;-83
2021/12/22 06:23:56;;;;;;;30.08;16.70;;;-3.50;99.90;;;;;;4999614;28;20037;-83
2021/12/22 06:26:21;;;;;;;28.55;15.80;;;-3.50;99.90;;;;;;5000703;28;20277;-83
2021/12/22 06:28:47;;;;;;;30.42;16.13;;;-3.60;99.90;;;;;;5001371;28;20090;-83
2021/12/22 06:31:13;;;;;;;35.65;17.02;;;-3.50;99.90;;;;;;5015291;28;20504;-83
2021/12/22 06:33:39;;;;;;;35.75;17.33;;;-3.50;99.90;;;;;;4999737;28;20326;-83
2021/12/22 06:36:05;;;;;;;29.98;16.88;;;-3.60;99.90;;;;;;5001848;28;20124;-83
2021/12/22 06:38:30;;;;;;;30.58;16.90;;;-3.60;99.90;;;;;;4999571;28;20187;-83
2021/12/22 06:40:56;;;;;;;33.35;17.08;;;-3.60;99.90;;;;;;5001818;28;20037;-83
2021/12/22 06:43:22;;;;;;;30.52;16.45;;;-3.60;99.90;;;;;;4996757;28;20037;-83
2021/12/22 06:45:48;;;;;;;28.02;16.23;;;-3.50;99.90;;;;;;5000123;28;20351;-83
2021/12/22 06:48:13;;;;;;;29.48;16.85;;;-3.60;99.90;;;;;;5014674;28;20047;-83
2021/12/22 06:50:39;;;;;;;28.30;16.52;;;-3.60;99.90;;;;;;5000447;28;20188;-82
2021/12/22 06:53:04;;;;;;;33.15;17.73;;;-3.60;99.90;;;;;;5002353;28;20042;-83
2021/12/22 06:55:30;;;;;;;34.63;16.27;;;-3.60;99.90;;;;;;5017815;28;20080;-83
2021/12/22 06:57:56;;;;;;;29.73;15.90;;;-3.60;99.90;;;;;;5017611;28;20176;-83
2021/12/22 07:00:22;;;;;;;32.40;17.48;;;-3.60;99.90;;;;;;5034202;28;20073;-83
2021/12/22 07:02:48;;;;;;;31.98;16.50;;;-3.60;99.90;;;;;;5018216;28;20045;-83
2021/12/22 07:05:14;;;;;;;33.13;16.65;;;-3.60;99.90;;;;;;5005908;28;20041;-83
2021/12/22 07:07:40;;;;;;;29.77;15.32;;;-3.60;99.90;;;;;;5001876;28;20046;-82
2021/12/22 07:10:08;;;;;;;31.75;16.33;;;-3.70;99.90;;;;;;5018746;28;20041;-83
2021/12/22 07:12:35;;;;;;;37.45;17.42;;;-3.60;99.90;;;;;;5035066;28;20240;-83
2021/12/22 07:15:03;;;;;;;27.60;15.55;;;-3.60;99.90;;;;;;5005771;28;20041;-83
2021/12/22 07:17:29;;;;;;;32.60;16.80;;;-3.70;99.90;;;;;;5002942;28;20033;-83
2021/12/22 07:19:54;;;;;;;30.73;16.85;;;-3.80;99.90;;;;;;5004252;28;20029;-82
2021/12/22 07:22:20;;;;;;;28.80;15.50;;;-3.70;99.90;;;;;;5001850;28;20049;-83
2021/12/22 07:24:46;;;;;;;28.45;15.73;;;-3.70;99.90;;;;;;5016772;28;20516;-82
2021/12/22 07:27:11;;;;;;;29.02;15.88;;;-3.70;99.90;;;;;;5018969;28;20112;-83
2021/12/22 07:29:37;;;;;;;29.27;16.25;;;-3.60;99.90;;;;;;5004871;28;20488;-82
2021/12/22 07:32:04;;;;;;;30.27;16.05;;;-3.70;99.90;;;;;;5002052;28;20538;-83
2021/12/22 07:34:50;;;;;;;31.23;17.02;;;-3.70;99.90;;;;;;5007139;28;20033;-83
2021/12/22 07:37:30;;;;;;;28.80;15.77;;;-3.80;99.90;;;;;;5017854;28;20042;-83
2021/12/22 07:39:56;;;;;;;36.70;17.65;;;-3.70;99.90;;;;;;5020317;28;20098;-83
2021/12/22 07:42:22;;;;;;;28.92;15.88;;;-3.70;99.90;;;;;;5003508;28;20472;-82
2021/12/22 07:44:48;;;;;;;30.17;15.55;;;-3.70;99.90;;;;;;5020742;28;20326;-83
2021/12/22 07:47:14;;;;;;;29.95;16.20;;;-3.70;99.90;;;;;;5018150;28;20166;-83
2021/12/22 07:49:40;;;;;;;33.33;16.05;;;-3.70;99.90;;;;;;5004740;28;20043;-83
2021/12/22 07:52:06;;;;;;;29.90;15.77;;;-3.70;99.90;;;;;;5017019;28;20495;-83
2021/12/22 07:54:31;;;;;;;26.83;15.73;;;-3.70;99.90;;;;;;5000874;28;20046;-83
2021/12/22 07:56:57;;;;;;;30.67;15.35;;;-3.50;99.90;;;;;;4997550;28;20144;-83
2021/12/22 07:59:22;;;;;;;30.33;15.45;;;-3.50;99.90;;;;;;5004312;28;20029;-83
2021/12/22 08:01:48;;;;;;;28.58;15.82;;;-3.60;99.90;;;;;;5020059;28;20025;-82
2021/12/22 08:04:17;;;;;;;31.58;16.98;;;-3.50;99.90;;;;;;5005844;28;20045;-82
2021/12/22 08:06:43;;;;;;;27.58;15.35;;;-3.40;99.90;;;;;;5038330;28;20133;-83
2021/12/22 08:09:09;;;;;;;30.55;16.77;;;-3.40;99.90;;;;;;5020174;28;20073;-81
2021/12/22 08:11:34;;;;;;;32.88;16.98;;;-3.40;99.90;;;;;;4998884;28;20064;-82
2021/12/22 08:14:00;;;;;;;32.40;17.00;;;-3.20;99.90;;;;;;5016025;28;20033;-83
2021/12/22 08:16:26;;;;;;;30.88;17.42;;;-3.20;99.90;;;;;;5020754;28;20044;-83
2021/12/22 08:18:51;;;;;;;29.40;16.40;;;-3.30;99.90;;;;;;5005372;28;20045;-83
2021/12/22 08:21:17;;;;;;;30.90;16.90;;;-3.20;99.90;;;;;;5036512;28;20566;-83
2021/12/22 08:23:43;;;;;;;33.92;17.90;;;-3.10;99.90;;;;;;5018255;28;20212;-83
2021/12/22 08:26:09;;;;;;;30.70;17.88;;;-3.00;99.90;;;;;;4996728;28;20436;-83
2021/12/22 08:28:35;;;;;;;32.13;17.25;;;-2.90;99.90;;;;;;5001907;28;20037;-83
2021/12/22 08:31:00;;;;;;;36.35;18.20;;;-2.90;99.90;;;;;;5019827;28;20045;-83
2021/12/22 08:33:30;;;;;;;30.23;16.45;;;-2.90;99.90;;;;;;5002817;28;20037;-82
2021/12/22 08:38:50;;;;;;;32.15;16.20;;;-2.70;99.90;;;;;;5033354;28;20038;-82
2021/12/22 08:41:17;;;;;;;36.33;17.60;;;-2.70;99.90;;;;;;5002016;28;20041;-83
2021/12/22 08:43:45;;;;;;;29.17;16.85;;;-2.70;99.90;;;;;;5017878;28;20046;-82
2021/12/22 08:46:11;;;;;;;34.38;17.38;;;-2.50;99.90;;;;;;5018961;28;20361;-83
2021/12/22 08:48:37;;;;;;;33.35;17.77;;;-2.50;99.90;;;;;;5018283;28;20045;-83
2021/12/22 08:51:02;;;;;;;35.13;17.77;;;-2.50;99.90;;;;;;5003398;28;20125;-82
2021/12/22 08:53:28;;;;;;;32.00;16.52;;;-2.30;99.90;;;;;;5019329;28;20110;-83
2021/12/22 08:55:54;;;;;;;33.17;17.42;;;-2.30;99.90;;;;;;5003306;28;20061;-83
2021/12/22 08:58:20;;;;;;;31.13;17.48;;;-2.30;99.90;;;;;;5002500;28;20077;-83
2021/12/22 09:00:45;;;;;;;35.17;17.83;;;-2.30;99.90;;;;;;5002962;28;20474;-83
2021/12/22 09:03:14;;;;;;;34.38;17.90;;;-2.10;99.90;;;;;;5004344;28;20041;-83
2021/12/22 09:05:40;;;;;;;30.10;17.40;;;-2.10;99.90;;;;;;5002739;28;20045;-83
2021/12/22 09:08:05;;;;;;;37.88;18.45;;;-2.00;99.90;;;;;;5002144;28;20052;-83
2021/12/22 09:10:31;;;;;;;35.38;18.13;;;-2.10;99.90;;;;;;5017651;28;20041;-82
2021/12/22 09:12:57;;;;;;;36.65;18.17;;;-2.00;99.90;;;;;;5000876;28;20501;-83
2021/12/22 09:15:22;;;;;;;31.75;18.17;;;-1.90;99.90;;;;;;5001568;28;20041;-82
2021/12/22 09:17:48;;;;;;;34.08;18.13;;;-2.00;99.90;;;;;;4999599;28;20207;-82
2021/12/22 09:20:17;;;;;;;32.28;17.27;;;-1.90;99.90;;;;;;5019367;28;20068;-82
2021/12/22 09:22:43;;;;;;;33.03;16.33;;;-1.80;99.90;;;;;;4999029;28;20075;-82
2021/12/22 09:25:09;;;;;;;34.13;17.65;;;-1.80;99.90;;;;;;5003435;28;20532;-83
2021/12/22 09:27:35;;;;;;;35.65;18.08;;;-1.80;99.90;;;;;;5005336;28;20049;-83
2021/12/22 09:30:02;;;;;;;33.40;16.73;;;-1.80;99.90;;;;;;5003184;28;20052;-83
2021/12/22 09:32:28;;;;;;;31.13;17.38;;;-1.60;99.90;;;;;;5019495;28;20293;-83
2021/12/22 09:34:53;;;;;;;30.38;17.02;;;-1.50;99.90;;;;;;5033342;28;20033;-83
2021/12/22 09:37:19;;;;;;;31.27;17.42;;;-1.60;99.90;;;;;;4998390;28;20220;-83
2021/12/22 09:39:45;;;;;;;33.13;17.33;;;-1.50;99.90;;;;;;5000945;28;20045;-82
2021/12/22 09:42:11;;;;;;;31.83;17.40;;;-1.30;99.90;;;;;;5035632;28;20045;-82
2021/12/22 09:44:44;;;;;;;27.52;16.52;;;-1.40;99.90;;;;;;5033829;28;20034;-82
2021/12/22 09:47:11;;;;;;;30.52;17.80;;;-1.30;99.90;;;;;;5000988;28;20354;-82
2021/12/22 09:52:19;;;;;;;31.73;18.10;;;-1.10;99.90;;;;;;5032499;28;20053;-82
2021/12/22 09:54:47;;;;;;;27.35;16.50;;;-1.20;99.90;;;;;;5017107;28;20122;-82
2021/12/22 09:57:15;;;;;;;34.00;18.05;;;-1.00;99.90;;;;;;5033039;28;20174;-82
2021/12/22 09:59:41;;;;;;;38.20;17.63;;;-1.00;99.90;;;;;;4998146;28;20502;-82
2021/12/22 10:02:07;;;;;;;33.17;17.13;;;-1.00;99.90;;;;;;5002062;28;20037;-82
2021/12/22 10:04:32;;;;;;;29.95;17.10;;;-0.90;99.90;;;;;;5016922;28;20037;-81
2021/12/22 10:06:59;;;;;;;31.27;17.08;;;-0.90;99.90;;;;;;4998887;28;20044;-82
2021/12/22 10:09:25;;;;;;;32.80;15.77;;;-0.80;99.90;;;;;;5001471;28;20419;-82
2021/12/22 10:11:51;;;;;;;27.88;15.63;;;-0.80;99.90;;;;;;5001555;28;20151;-82
2021/12/22 10:14:36;;;;;;;30.13;16.70;;;-0.80;99.90;;;;;;5003379;28;20184;-82
2021/12/22 10:17:01;;;;;;;;;;;-0.70;99.90;;;;;;4998203;28;20065;-82
2021/12/22 10:19:30;;;;;;;30.35;17.23;;;-0.60;99.90;;;;;;4999700;28;19917;-82
2021/12/22 10:22:02;;;;;;;31.05;16.60;;;-0.60;99.90;;;;;;5000366;28;20123;-82
2021/12/22 10:24:43;;;;;;;28.05;16.15;;;-0.60;99.90;;;;;;4999357;28;20530;-82
2021/12/22 10:27:19;;;;;;;27.17;16.88;;;-0.40;99.90;;;;;;5021267;28;20140;-82
2021/12/22 10:29:45;;;;;;;29.33;16.40;;;-0.50;99.90;;;;;;5018346;28;20065;-82
2021/12/22 10:32:13;;;;;;;27.15;15.93;;;-0.40;99.90;;;;;;5005284;28;20128;-82
2021/12/22 10:35:05;;;;;;;31.17;16.08;;;-0.40;99.90;;;;;;5017366;28;20113;-82
2021/12/22 10:37:42;;;;;;;27.70;16.10;;;-0.40;99.90;;;;;;5017387;28;20112;-82
2021/12/22 10:40:46;;;;;;;26.25;15.90;;;-0.10;99.90;;;;;;5003065;28;20144;-82
2021/12/22 10:43:25;;;;;;;26.58;14.98;;;-0.10;99.90;;;;;;4962937;28;20049;-81
2021/12/22 10:45:55;;;;;;;27.58;16.15;;;0.00;99.90;;;;;;5016666;28;20046;-81
2021/12/22 10:51:20;;;;;;;24.48;15.15;;;0.10;99.90;;;;;;5020082;28;20052;-82
2021/12/22 10:53:50;;;;;;;26.45;15.15;;;0.00;99.90;;;;;;5002332;28;20512;-82
2021/12/22 10:56:31;;;;;;;22.98;14.88;;;0.10;99.90;;;;;;4992044;28;20068;-82
2021/12/22 10:59:17;;;;;;;24.13;15.38;;;0.20;99.90;;;;;;5004086;28;20041;-82
2021/12/22 11:01:52;;;;;;;24.35;14.23;;;0.10;99.90;;;;;;4993669;28;20049;-82
2021/12/22 11:04:26;;;;;;;24.73;13.65;;;0.00;99.90;;;;;;4983466;28;20545;-82
2021/12/22 11:06:56;;;;;;;24.05;14.13;;;0.10;99.90;;;;;;5001860;28;20499;-82
2021/12/22 11:09:23;;;;;;;23.77;13.93;;;0.10;99.90;;;;;;4989153;28;20026;-82
2021/12/22 11:11:57;;;;;;;20.73;13.88;;;0.10;99.90;;;;;;4987890;28;20497;-82
2021/12/22 11:14:30;;;;;;;25.75;15.27;;;0.10;99.90;;;;;;5001539;28;20102;-82
2021/12/22 11:17:01;;;;;;;23.00;14.15;;;0.20;99.90;;;;;;5000139;28;20516;-82
2021/12/22 11:19:47;;;;;;;22.05;13.45;;;0.10;99.90;;;;;;5003789;28;20111;-82
2021/12/22 11:22:15;;;;;;;22.67;14.68;;;0.20;99.90;;;;;;5000823;28;20409;-81
2021/12/22 11:24:48;;;;;;;22.15;13.63;;;0.20;99.90;;;;;;5000427;28;20487;-83
2021/12/22 11:27:20;;;;;;;24.33;14.10;;;0.10;99.90;;;;;;4987260;28;20037;-83
2021/12/22 11:29:48;;;;;;;22.25;14.30;;;0.10;99.90;;;;;;5004613;28;20413;-83
2021/12/22 11:32:17;;;;;;;22.10;14.55;;;0.20;99.90;;;;;;5001571;28;20397;-83
2021/12/22 11:34:49;;;;;;;21.08;14.10;;;0.20;99.90;;;;;;5001493;28;20049;-83
2021/12/22 11:37:15;;;;;;;19.88;13.40;;;0.20;99.90;;;;;;5002488;28;20520;-83
2021/12/22 11:39:41;;;;;;;21.55;13.35;;;0.30;99.90;;;;;;5019017;28;20509;-83
2021/12/22 11:42:09;;;;;;;25.83;13.65;;;0.20;99.90;;;;;;4987787;28;20274;-83
2021/12/22 11:44:38;;;;;;;23.88;14.55;;;0.30;99.90;;;;;;4991582;28;20436;-83
2021/12/22 11:47:08;;;;;;;17.35;12.55;;;0.30;99.90;;;;;;4998016;28;20100;-83
2021/12/22 11:49:34;;;;;;;24.15;14.43;;;0.40;99.90;;;;;;4989101;28;20539;-82
2021/12/22 11:52:49;;;;;;;21.15;14.23;;;0.40;99.90;;;;;;4987482;28;20037;-83
2021/12/22 11:55:25;;;;;;;19.45;12.93;;;0.40;99.90;;;;;;4966795;28;20426;-83
2021/12/22 11:58:13;;;;;;;22.02;13.93;;;0.40;99.90;;;;;;4984159;28;22157;-83
2021/12/22 12:00:57;;;;;;;21.08;13.63;;;0.40;99.90;;;;;;4988880;28;20072;-83
2021/12/22 12:03:34;;;;;;;22.30;13.87;;;0.40;99.90;;;;;;4990054;28;20049;-82
2021/12/22 12:06:21;;;;;;;20.63;13.15;;;0.40;99.90;;;;;;5016770;28;20368;-83
2021/12/22 12:09:08;;;;;;;21.48;13.05;;;0.40;99.90;;;;;;4986758;28;20052;-83
2021/12/22 12:11:49;;;;;;;20.90;13.32;;;0.40;99.90;;;;;;4990005;28;20073;-83
2021/12/22 12:14:35;;;;;;;19.08;12.48;;;0.40;99.90;;;;;;4988211;28;20083;-82
2021/12/22 12:23:32;;;;;;;22.63;12.85;;;0.50;99.90;;;;;;5001127;28;20488;-83
2021/12/22 12:26:03;;;;;;;20.50;13.43;;;0.40;99.90;;;;;;5007086;28;20041;-82
2021/12/22 12:28:31;;;;;;;19.92;12.82;;;0.40;99.90;;;;;;4996098;28;20046;-82
2021/12/22 12:30:58;;;;;;;19.60;13.48;;;0.40;99.90;;;;;;5004806;28;20117;-83
2021/12/22 12:33:31;;;;;;;20.20;13.18;;;0.50;99.90;;;;;;4990341;28;20574;-83
2021/12/22 12:36:06;;;;;;;22.35;13.13;;;0.40;99.90;;;;;;4982416;28;20049;-83
2021/12/22 12:38:41;;;;;;;18.23;13.15;;;0.40;99.90;;;;;;5002346;28;20326;-83
2021/12/22 12:41:14;;;;;;;18.83;12.23;;;0.40;99.90;;;;;;5006776;28;20038;-83
2021/12/22 12:43:51;;;;;;;20.23;12.50;;;0.40;99.90;;;;;;5014710;28;20030;-83
2021/12/22 12:46:34;;;;;;;20.65;13.07;;;0.40;99.90;;;;;;5001195;28;20404;-83
2021/12/22 12:49:11;;;;;;;19.35;12.60;;;0.50;99.90;;;;;;4998669;28;20061;-82
2021/12/22 12:51:40;;;;;;;20.27;12.77;;;0.50;99.90;;;;;;4979257;28;20392;-83
2021/12/22 12:54:19;;;;;;;20.75;12.90;;;0.40;99.90;;;;;;5018179;28;20488;-82
2021/12/22 12:56:48;;;;;;;21.02;12.88;;;0.50;99.90;;;;;;4986922;28;20176;-82
2021/12/22 12:59:26;;;;;;;21.33;13.15;;;0.50;99.90;;;;;;4985536;28;20037;-82
2021/12/22 13:01:57;;;;;;;19.40;12.13;;;0.50;99.90;;;;;;4986617;28;20722;-83